sensor_id;sensor_type;location;lat;lon;timestamp;temperature;humidity
12622;DHT22;6376;48.182;-1.644;2023-01-09T00:00:46;12.20;90.10
12622;DHT22;6376;48.182;-1.644;2023-01-09T00:03:12;12.20;90.10
12622;DHT22;6376;48.182;-1.644;2023-01-09T00:05:38;12.20;90.10
12622;DHT22;6376;48.182;-1.644;2023-01-09T00:08:04;12.20;90.20
12622;DHT22;6376;48.182;-1.644;2023-01-09T00:10:30;12.20;90.20
12622;DHT22;6376;48.182;-1.644;2023-01-09T00:12:55;12.20;90.10
12622;DHT22;6376;48.182;-1.644;2023-01-09T00:15:21;12.20;90.10
12622;DHT22;6376;48.182;-1.644;2023-01-09T00:17:46;12.20;90.10
12622;DHT22;6376;48.182;-1.644;2023-01-09T00:20:14;12.20;90.20
12622;DHT22;6376;48.182;-1.644;2023-01-09T00:22:40;12.20;90.20
12622;DHT22;6376;48.182;-1.644;2023-01-09T00:25:06;12.20;90.10
12622;DHT22;6376;48.182;-1.644;2023-01-09T00:27:33;12.20;90.10
12622;DHT22;6376;48.182;-1.644;2023-01-09T00:29:59;12.20;90.10
12622;DHT22;6376;48.182;-1.644;2023-01-09T00:32:26;12.20;90.10
12622;DHT22;6376;48.182;-1.644;2023-01-09T00:34:52;12.20;90.00
12622;DHT22;6376;48.182;-1.644;2023-01-09T00:37:17;12.20;90.10
12622;DHT22;6376;48.182;-1.644;2023-01-09T00:39:43;12.20;90.00
12622;DHT22;6376;48.182;-1.644;2023-01-09T00:42:17;12.20;90.10
12622;DHT22;6376;48.182;-1.644;2023-01-09T00:45:06;12.20;90.00
12622;DHT22;6376;48.182;-1.644;2023-01-09T00:47:37;12.20;90.40
12622;DHT22;6376;48.182;-1.644;2023-01-09T00:50:07;12.20;90.00
12622;DHT22;6376;48.182;-1.644;2023-01-09T00:52:34;12.20;90.10
12622;DHT22;6376;48.182;-1.644;2023-01-09T00:55:03;12.20;90.10
12622;DHT22;6376;48.182;-1.644;2023-01-09T00:57:29;12.20;90.10
12622;DHT22;6376;48.182;-1.644;2023-01-09T00:59:55;12.20;90.10
12622;DHT22;6376;48.182;-1.644;2023-01-09T01:02:21;12.20;90.10
12622;DHT22;6376;48.182;-1.644;2023-01-09T01:04:47;12.20;90.00
12622;DHT22;6376;48.182;-1.644;2023-01-09T01:07:31;12.20;90.00
12622;DHT22;6376;48.182;-1.644;2023-01-09T01:10:04;12.20;90.00
12622;DHT22;6376;48.182;-1.644;2023-01-09T01:12:30;12.10;90.00
12622;DHT22;6376;48.182;-1.644;2023-01-09T01:14:56;12.20;90.00
12622;DHT22;6376;48.182;-1.644;2023-01-09T01:17:21;12.10;90.00
12622;DHT22;6376;48.182;-1.644;2023-01-09T01:19:47;12.20;90.00
12622;DHT22;6376;48.182;-1.644;2023-01-09T01:22:13;12.20;90.00
12622;DHT22;6376;48.182;-1.644;2023-01-09T01:24:39;12.10;90.00
12622;DHT22;6376;48.182;-1.644;2023-01-09T01:27:05;12.10;90.00
12622;DHT22;6376;48.182;-1.644;2023-01-09T01:29:30;12.10;90.00
12622;DHT22;6376;48.182;-1.644;2023-01-09T01:31:56;12.10;90.00
12622;DHT22;6376;48.182;-1.644;2023-01-09T01:34:21;12.10;89.90
12622;DHT22;6376;48.182;-1.644;2023-01-09T01:36:47;12.10;89.90
12622;DHT22;6376;48.182;-1.644;2023-01-09T01:39:13;12.10;89.70
12622;DHT22;6376;48.182;-1.644;2023-01-09T01:41:39;12.10;89.60
12622;DHT22;6376;48.182;-1.644;2023-01-09T01:44:53;12.10;89.70
12622;DHT22;6376;48.182;-1.644;2023-01-09T01:46:53;12.10;90.00
12622;DHT22;6376;48.182;-1.644;2023-01-09T01:49:19;12.10;89.90
12622;DHT22;6376;48.182;-1.644;2023-01-09T01:51:49;12.10;89.90
12622;DHT22;6376;48.182;-1.644;2023-01-09T01:54:23;12.10;90.00
12622;DHT22;6376;48.182;-1.644;2023-01-09T01:56:53;12.10;90.00
12622;DHT22;6376;48.182;-1.644;2023-01-09T01:59:37;12.10;89.90
12622;DHT22;6376;48.182;-1.644;2023-01-09T02:02:04;12.10;90.00
12622;DHT22;6376;48.182;-1.644;2023-01-09T02:04:32;12.10;90.00
12622;DHT22;6376;48.182;-1.644;2023-01-09T02:07:00;12.10;90.00
12622;DHT22;6376;48.182;-1.644;2023-01-09T02:09:27;12.10;89.90
12622;DHT22;6376;48.182;-1.644;2023-01-09T02:11:56;12.10;89.80
12622;DHT22;6376;48.182;-1.644;2023-01-09T02:14:25;12.10;90.00
12622;DHT22;6376;48.182;-1.644;2023-01-09T02:17:22;12.10;90.00
12622;DHT22;6376;48.182;-1.644;2023-01-09T02:33:52;12.10;89.90
12622;DHT22;6376;48.182;-1.644;2023-01-09T02:39:25;12.00;89.90
12622;DHT22;6376;48.182;-1.644;2023-01-09T02:41:52;12.00;89.80
12622;DHT22;6376;48.182;-1.644;2023-01-09T02:44:25;12.00;89.70
12622;DHT22;6376;48.182;-1.644;2023-01-09T02:47:03;12.00;89.80
12622;DHT22;6376;48.182;-1.644;2023-01-09T02:49:31;12.00;89.90
12622;DHT22;6376;48.182;-1.644;2023-01-09T02:52:17;12.00;90.00
12622;DHT22;6376;48.182;-1.644;2023-01-09T03:02:35;12.00;89.60
12622;DHT22;6376;48.182;-1.644;2023-01-09T03:07:45;12.00;89.70
12622;DHT22;6376;48.182;-1.644;2023-01-09T03:10:34;12.00;89.70
12622;DHT22;6376;48.182;-1.644;2023-01-09T03:13:01;12.00;89.80
12622;DHT22;6376;48.182;-1.644;2023-01-09T03:15:30;12.00;89.70
12622;DHT22;6376;48.182;-1.644;2023-01-09T03:17:58;12.00;89.70
12622;DHT22;6376;48.182;-1.644;2023-01-09T03:20:25;12.00;89.80
12622;DHT22;6376;48.182;-1.644;2023-01-09T03:22:57;12.00;89.80
12622;DHT22;6376;48.182;-1.644;2023-01-09T03:25:24;12.00;89.70
12622;DHT22;6376;48.182;-1.644;2023-01-09T03:27:57;12.00;89.90
12622;DHT22;6376;48.182;-1.644;2023-01-09T03:30:24;12.00;89.70
12622;DHT22;6376;48.182;-1.644;2023-01-09T03:32:50;12.00;89.70
12622;DHT22;6376;48.182;-1.644;2023-01-09T03:35:16;12.00;89.70
12622;DHT22;6376;48.182;-1.644;2023-01-09T03:37:42;12.00;89.70
12622;DHT22;6376;48.182;-1.644;2023-01-09T03:40:08;12.00;89.70
12622;DHT22;6376;48.182;-1.644;2023-01-09T03:42:34;12.00;89.70
12622;DHT22;6376;48.182;-1.644;2023-01-09T03:45:00;12.00;89.70
12622;DHT22;6376;48.182;-1.644;2023-01-09T03:47:25;12.00;89.60
12622;DHT22;6376;48.182;-1.644;2023-01-09T03:49:51;12.00;89.80
12622;DHT22;6376;48.182;-1.644;2023-01-09T03:52:16;12.00;89.70
12622;DHT22;6376;48.182;-1.644;2023-01-09T03:54:42;12.00;89.40
12622;DHT22;6376;48.182;-1.644;2023-01-09T03:57:08;12.00;89.70
12622;DHT22;6376;48.182;-1.644;2023-01-09T03:59:33;12.00;89.70
12622;DHT22;6376;48.182;-1.644;2023-01-09T04:01:59;11.90;89.70
12622;DHT22;6376;48.182;-1.644;2023-01-09T04:04:25;12.00;89.70
12622;DHT22;6376;48.182;-1.644;2023-01-09T04:06:50;12.00;89.60
12622;DHT22;6376;48.182;-1.644;2023-01-09T04:09:16;11.90;89.70
12622;DHT22;6376;48.182;-1.644;2023-01-09T04:11:42;11.90;89.60
12622;DHT22;6376;48.182;-1.644;2023-01-09T04:14:07;11.90;89.70
12622;DHT22;6376;48.182;-1.644;2023-01-09T04:16:33;12.00;89.30
12622;DHT22;6376;48.182;-1.644;2023-01-09T04:18:59;12.00;89.70
12622;DHT22;6376;48.182;-1.644;2023-01-09T04:21:24;12.00;89.60
12622;DHT22;6376;48.182;-1.644;2023-01-09T04:23:50;11.90;89.60
12622;DHT22;6376;48.182;-1.644;2023-01-09T04:26:16;11.90;89.50
12622;DHT22;6376;48.182;-1.644;2023-01-09T04:28:41;12.00;89.60
12622;DHT22;6376;48.182;-1.644;2023-01-09T04:31:07;12.00;89.60
12622;DHT22;6376;48.182;-1.644;2023-01-09T04:33:33;11.90;89.60
12622;DHT22;6376;48.182;-1.644;2023-01-09T04:35:59;11.90;89.40
12622;DHT22;6376;48.182;-1.644;2023-01-09T04:38:24;11.90;89.60
12622;DHT22;6376;48.182;-1.644;2023-01-09T04:40:52;11.90;89.60
12622;DHT22;6376;48.182;-1.644;2023-01-09T04:43:17;11.90;89.50
12622;DHT22;6376;48.182;-1.644;2023-01-09T04:45:43;11.90;89.40
12622;DHT22;6376;48.182;-1.644;2023-01-09T04:48:09;11.90;89.40
12622;DHT22;6376;48.182;-1.644;2023-01-09T04:50:35;11.90;89.30
12622;DHT22;6376;48.182;-1.644;2023-01-09T04:53:00;11.90;89.60
12622;DHT22;6376;48.182;-1.644;2023-01-09T04:55:26;11.90;89.40
12622;DHT22;6376;48.182;-1.644;2023-01-09T04:57:52;11.90;89.40
12622;DHT22;6376;48.182;-1.644;2023-01-09T05:00:17;11.90;89.30
12622;DHT22;6376;48.182;-1.644;2023-01-09T05:02:43;11.90;89.10
12622;DHT22;6376;48.182;-1.644;2023-01-09T05:05:09;11.90;89.40
12622;DHT22;6376;48.182;-1.644;2023-01-09T05:07:35;11.90;89.10
12622;DHT22;6376;48.182;-1.644;2023-01-09T05:10:02;11.90;89.20
12622;DHT22;6376;48.182;-1.644;2023-01-09T05:12:28;11.90;89.30
12622;DHT22;6376;48.182;-1.644;2023-01-09T05:14:54;11.90;89.20
12622;DHT22;6376;48.182;-1.644;2023-01-09T05:17:19;11.90;89.20
12622;DHT22;6376;48.182;-1.644;2023-01-09T05:19:45;11.90;89.30
12622;DHT22;6376;48.182;-1.644;2023-01-09T05:22:11;11.90;89.30
12622;DHT22;6376;48.182;-1.644;2023-01-09T05:24:37;11.90;89.10
12622;DHT22;6376;48.182;-1.644;2023-01-09T05:27:03;11.90;89.30
12622;DHT22;6376;48.182;-1.644;2023-01-09T05:29:28;11.90;89.30
12622;DHT22;6376;48.182;-1.644;2023-01-09T05:31:54;11.90;89.20
12622;DHT22;6376;48.182;-1.644;2023-01-09T05:34:20;11.90;89.10
12622;DHT22;6376;48.182;-1.644;2023-01-09T05:36:46;11.90;89.30
12622;DHT22;6376;48.182;-1.644;2023-01-09T05:39:12;11.80;89.30
12622;DHT22;6376;48.182;-1.644;2023-01-09T05:41:37;11.80;89.10
12622;DHT22;6376;48.182;-1.644;2023-01-09T05:44:03;11.90;89.10
12622;DHT22;6376;48.182;-1.644;2023-01-09T05:46:30;11.80;89.20
12622;DHT22;6376;48.182;-1.644;2023-01-09T05:48:55;11.80;89.20
12622;DHT22;6376;48.182;-1.644;2023-01-09T05:51:21;11.80;88.90
12622;DHT22;6376;48.182;-1.644;2023-01-09T05:53:47;11.80;89.20
12622;DHT22;6376;48.182;-1.644;2023-01-09T05:56:12;11.80;89.20
12622;DHT22;6376;48.182;-1.644;2023-01-09T05:58:38;11.80;89.30
12622;DHT22;6376;48.182;-1.644;2023-01-09T06:01:04;11.80;89.10
12622;DHT22;6376;48.182;-1.644;2023-01-09T06:03:30;11.80;89.10
12622;DHT22;6376;48.182;-1.644;2023-01-09T06:05:56;11.80;89.10
12622;DHT22;6376;48.182;-1.644;2023-01-09T06:08:21;11.80;89.20
12622;DHT22;6376;48.182;-1.644;2023-01-09T06:10:47;11.80;89.00
12622;DHT22;6376;48.182;-1.644;2023-01-09T06:13:13;11.80;89.20
12622;DHT22;6376;48.182;-1.644;2023-01-09T06:15:38;11.80;89.10
12622;DHT22;6376;48.182;-1.644;2023-01-09T06:18:04;11.80;88.90
12622;DHT22;6376;48.182;-1.644;2023-01-09T06:20:30;11.80;89.10
12622;DHT22;6376;48.182;-1.644;2023-01-09T06:22:56;11.80;89.10
12622;DHT22;6376;48.182;-1.644;2023-01-09T06:25:21;11.80;89.00
12622;DHT22;6376;48.182;-1.644;2023-01-09T06:27:48;11.80;89.10
12622;DHT22;6376;48.182;-1.644;2023-01-09T06:30:14;11.80;89.30
12622;DHT22;6376;48.182;-1.644;2023-01-09T06:32:40;11.80;89.00
12622;DHT22;6376;48.182;-1.644;2023-01-09T06:35:06;11.80;89.10
12622;DHT22;6376;48.182;-1.644;2023-01-09T06:37:31;11.80;89.10
12622;DHT22;6376;48.182;-1.644;2023-01-09T06:39:58;11.80;89.20
12622;DHT22;6376;48.182;-1.644;2023-01-09T06:42:23;11.80;89.20
12622;DHT22;6376;48.182;-1.644;2023-01-09T06:44:49;11.70;89.10
12622;DHT22;6376;48.182;-1.644;2023-01-09T06:47:15;11.80;89.10
12622;DHT22;6376;48.182;-1.644;2023-01-09T06:49:40;11.70;89.00
12622;DHT22;6376;48.182;-1.644;2023-01-09T06:52:06;11.70;89.00
12622;DHT22;6376;48.182;-1.644;2023-01-09T06:54:33;11.70;89.00
12622;DHT22;6376;48.182;-1.644;2023-01-09T06:56:59;11.70;89.10
12622;DHT22;6376;48.182;-1.644;2023-01-09T06:59:25;11.70;88.90
12622;DHT22;6376;48.182;-1.644;2023-01-09T07:01:51;11.70;88.80
12622;DHT22;6376;48.182;-1.644;2023-01-09T07:04:16;11.70;88.90
12622;DHT22;6376;48.182;-1.644;2023-01-09T07:06:45;11.70;88.80
12622;DHT22;6376;48.182;-1.644;2023-01-09T07:09:11;11.70;89.00
12622;DHT22;6376;48.182;-1.644;2023-01-09T07:11:38;11.70;88.90
12622;DHT22;6376;48.182;-1.644;2023-01-09T07:14:04;11.70;89.00
12622;DHT22;6376;48.182;-1.644;2023-01-09T07:16:30;11.70;88.90
12622;DHT22;6376;48.182;-1.644;2023-01-09T07:18:56;11.70;89.10
12622;DHT22;6376;48.182;-1.644;2023-01-09T07:21:22;11.70;88.90
12622;DHT22;6376;48.182;-1.644;2023-01-09T07:23:48;11.70;88.80
12622;DHT22;6376;48.182;-1.644;2023-01-09T07:26:13;11.70;88.80
12622;DHT22;6376;48.182;-1.644;2023-01-09T07:28:39;11.70;89.00
12622;DHT22;6376;48.182;-1.644;2023-01-09T07:31:05;11.70;88.90
12622;DHT22;6376;48.182;-1.644;2023-01-09T07:33:32;11.70;88.90
12622;DHT22;6376;48.182;-1.644;2023-01-09T07:35:58;11.70;89.00
12622;DHT22;6376;48.182;-1.644;2023-01-09T07:38:24;11.70;88.90
12622;DHT22;6376;48.182;-1.644;2023-01-09T07:40:50;11.70;88.80
12622;DHT22;6376;48.182;-1.644;2023-01-09T07:43:15;11.70;89.00
12622;DHT22;6376;48.182;-1.644;2023-01-09T07:45:41;11.70;88.80
12622;DHT22;6376;48.182;-1.644;2023-01-09T07:48:07;11.70;88.70
12622;DHT22;6376;48.182;-1.644;2023-01-09T07:50:32;11.70;88.70
12622;DHT22;6376;48.182;-1.644;2023-01-09T07:52:58;11.70;88.80
12622;DHT22;6376;48.182;-1.644;2023-01-09T07:55:24;11.70;88.60
12622;DHT22;6376;48.182;-1.644;2023-01-09T07:57:50;11.70;88.60
12622;DHT22;6376;48.182;-1.644;2023-01-09T08:00:17;11.70;88.70
12622;DHT22;6376;48.182;-1.644;2023-01-09T08:02:42;11.70;88.60
12622;DHT22;6376;48.182;-1.644;2023-01-09T08:05:08;11.70;88.60
12622;DHT22;6376;48.182;-1.644;2023-01-09T08:07:39;11.70;88.70
12622;DHT22;6376;48.182;-1.644;2023-01-09T08:10:05;11.60;88.30
12622;DHT22;6376;48.182;-1.644;2023-01-09T08:12:31;11.70;88.30
12622;DHT22;6376;48.182;-1.644;2023-01-09T08:14:56;11.60;88.40
12622;DHT22;6376;48.182;-1.644;2023-01-09T08:17:22;11.70;88.70
12622;DHT22;6376;48.182;-1.644;2023-01-09T08:19:47;11.70;88.70
12622;DHT22;6376;48.182;-1.644;2023-01-09T08:22:13;11.70;88.60
12622;DHT22;6376;48.182;-1.644;2023-01-09T08:24:39;11.70;88.70
12622;DHT22;6376;48.182;-1.644;2023-01-09T08:27:04;11.60;88.40
12622;DHT22;6376;48.182;-1.644;2023-01-09T08:29:30;11.70;88.60
12622;DHT22;6376;48.182;-1.644;2023-01-09T08:31:56;11.70;88.40
12622;DHT22;6376;48.182;-1.644;2023-01-09T08:34:21;11.70;88.30
12622;DHT22;6376;48.182;-1.644;2023-01-09T08:36:47;11.70;87.90
12622;DHT22;6376;48.182;-1.644;2023-01-09T08:39:13;11.70;88.30
12622;DHT22;6376;48.182;-1.644;2023-01-09T08:41:39;11.70;88.40
12622;DHT22;6376;48.182;-1.644;2023-01-09T08:44:23;11.70;88.20
12622;DHT22;6376;48.182;-1.644;2023-01-09T08:47:07;11.70;88.10
12622;DHT22;6376;48.182;-1.644;2023-01-09T08:49:36;11.70;88.10
12622;DHT22;6376;48.182;-1.644;2023-01-09T08:52:03;11.70;88.00
12622;DHT22;6376;48.182;-1.644;2023-01-09T08:54:29;11.70;88.10
12622;DHT22;6376;48.182;-1.644;2023-01-09T08:56:55;11.70;87.60
12622;DHT22;6376;48.182;-1.644;2023-01-09T08:59:20;11.80;87.70
12622;DHT22;6376;48.182;-1.644;2023-01-09T09:01:46;11.80;87.80
12622;DHT22;6376;48.182;-1.644;2023-01-09T09:04:12;11.80;87.70
12622;DHT22;6376;48.182;-1.644;2023-01-09T09:06:37;11.80;87.70
12622;DHT22;6376;48.182;-1.644;2023-01-09T09:09:03;11.70;87.60
12622;DHT22;6376;48.182;-1.644;2023-01-09T09:11:31;11.70;87.70
12622;DHT22;6376;48.182;-1.644;2023-01-09T09:13:57;11.70;87.80
12622;DHT22;6376;48.182;-1.644;2023-01-09T09:16:24;11.80;87.80
12622;DHT22;6376;48.182;-1.644;2023-01-09T09:18:50;11.80;87.40
12622;DHT22;6376;48.182;-1.644;2023-01-09T09:21:16;11.90;87.40
12622;DHT22;6376;48.182;-1.644;2023-01-09T09:23:42;11.90;87.20
12622;DHT22;6376;48.182;-1.644;2023-01-09T09:26:11;12.00;87.20
12622;DHT22;6376;48.182;-1.644;2023-01-09T09:28:36;12.00;87.10
12622;DHT22;6376;48.182;-1.644;2023-01-09T09:31:06;12.00;87.80
12622;DHT22;6376;48.182;-1.644;2023-01-09T09:33:31;12.10;86.80
12622;DHT22;6376;48.182;-1.644;2023-01-09T09:35:58;12.20;86.40
12622;DHT22;6376;48.182;-1.644;2023-01-09T09:38:24;12.30;85.80
12622;DHT22;6376;48.182;-1.644;2023-01-09T09:41:10;12.40;85.20
12622;DHT22;6376;48.182;-1.644;2023-01-09T09:44:10;12.50;84.80
12622;DHT22;6376;48.182;-1.644;2023-01-09T09:55:30;12.90;83.50
12622;DHT22;6376;48.182;-1.644;2023-01-09T09:58:00;12.90;83.10
12622;DHT22;6376;48.182;-1.644;2023-01-09T10:00:27;12.90;83.20
12622;DHT22;6376;48.182;-1.644;2023-01-09T10:03:27;12.80;83.50
12622;DHT22;6376;48.182;-1.644;2023-01-09T10:05:56;12.70;83.90
12622;DHT22;6376;48.182;-1.644;2023-01-09T10:11:25;12.40;83.80
12622;DHT22;6376;48.182;-1.644;2023-01-09T10:13:52;12.40;84.10
12622;DHT22;6376;48.182;-1.644;2023-01-09T10:19:36;12.30;84.30
12622;DHT22;6376;48.182;-1.644;2023-01-09T10:25:28;12.30;84.90
12622;DHT22;6376;48.182;-1.644;2023-01-09T10:31:03;12.70;84.10
12622;DHT22;6376;48.182;-1.644;2023-01-09T10:34:11;12.80;83.30
12622;DHT22;6376;48.182;-1.644;2023-01-09T10:37:17;12.80;83.20
12622;DHT22;6376;48.182;-1.644;2023-01-09T10:40:12;12.90;83.00
12622;DHT22;6376;48.182;-1.644;2023-01-09T10:42:49;13.00;82.90
12622;DHT22;6376;48.182;-1.644;2023-01-09T10:45:25;13.00;82.70
12622;DHT22;6376;48.182;-1.644;2023-01-09T10:47:58;13.00;82.60
12622;DHT22;6376;48.182;-1.644;2023-01-09T10:50:33;13.10;82.50
12622;DHT22;6376;48.182;-1.644;2023-01-09T10:53:00;13.10;82.30
12622;DHT22;6376;48.182;-1.644;2023-01-09T10:55:44;13.20;82.10
12622;DHT22;6376;48.182;-1.644;2023-01-09T10:58:19;13.10;82.20
12622;DHT22;6376;48.182;-1.644;2023-01-09T11:00:46;13.00;83.30
12622;DHT22;6376;48.182;-1.644;2023-01-09T11:03:14;12.90;83.60
12622;DHT22;6376;48.182;-1.644;2023-01-09T11:05:40;13.00;83.10
12622;DHT22;6376;48.182;-1.644;2023-01-09T11:10:49;12.90;83.20
12622;DHT22;6376;48.182;-1.644;2023-01-09T11:13:23;12.90;83.30
12622;DHT22;6376;48.182;-1.644;2023-01-09T11:16:16;12.90;83.40
12622;DHT22;6376;48.182;-1.644;2023-01-09T11:18:59;13.00;83.20
12622;DHT22;6376;48.182;-1.644;2023-01-09T11:21:34;13.00;82.90
12622;DHT22;6376;48.182;-1.644;2023-01-09T11:26:48;13.30;82.20
12622;DHT22;6376;48.182;-1.644;2023-01-09T11:29:16;13.30;81.50
12622;DHT22;6376;48.182;-1.644;2023-01-09T11:31:55;13.50;81.30
12622;DHT22;6376;48.182;-1.644;2023-01-09T11:34:30;13.40;81.20
12622;DHT22;6376;48.182;-1.644;2023-01-09T11:37:07;13.30;81.50
12622;DHT22;6376;48.182;-1.644;2023-01-09T11:39:34;13.30;82.00
12622;DHT22;6376;48.182;-1.644;2023-01-09T11:42:05;13.20;82.20
12622;DHT22;6376;48.182;-1.644;2023-01-09T11:44:31;13.10;82.60
12622;DHT22;6376;48.182;-1.644;2023-01-09T11:46:57;13.10;82.70
12622;DHT22;6376;48.182;-1.644;2023-01-09T11:49:26;13.00;82.90
12622;DHT22;6376;48.182;-1.644;2023-01-09T11:54:37;13.00;82.90
12622;DHT22;6376;48.182;-1.644;2023-01-09T11:57:08;12.90;82.90
12622;DHT22;6376;48.182;-1.644;2023-01-09T11:59:35;12.90;83.10
12622;DHT22;6376;48.182;-1.644;2023-01-09T12:05:07;12.80;83.60
12622;DHT22;6376;48.182;-1.644;2023-01-09T12:07:40;12.80;83.60
12622;DHT22;6376;48.182;-1.644;2023-01-09T12:13:04;12.80;83.90
12622;DHT22;6376;48.182;-1.644;2023-01-09T12:21:34;12.80;84.00
12622;DHT22;6376;48.182;-1.644;2023-01-09T12:32:08;12.70;84.50
12622;DHT22;6376;48.182;-1.644;2023-01-09T12:56:22;12.50;84.90
12622;DHT22;6376;48.182;-1.644;2023-01-09T13:01:29;12.50;84.80
12622;DHT22;6376;48.182;-1.644;2023-01-09T13:04:11;12.50;84.80
12622;DHT22;6376;48.182;-1.644;2023-01-09T13:06:45;12.50;84.80
12622;DHT22;6376;48.182;-1.644;2023-01-09T13:09:26;12.50;84.80
12622;DHT22;6376;48.182;-1.644;2023-01-09T13:12:02;12.50;84.80
12622;DHT22;6376;48.182;-1.644;2023-01-09T13:17:21;12.50;84.80
12622;DHT22;6376;48.182;-1.644;2023-01-09T13:19:47;12.50;84.90
12622;DHT22;6376;48.182;-1.644;2023-01-09T13:22:14;12.50;85.00
12622;DHT22;6376;48.182;-1.644;2023-01-09T13:27:24;12.40;85.00
12622;DHT22;6376;48.182;-1.644;2023-01-09T13:29:56;12.40;85.00
12622;DHT22;6376;48.182;-1.644;2023-01-09T13:35:12;12.40;85.00
12622;DHT22;6376;48.182;-1.644;2023-01-09T13:37:39;12.40;85.00
12622;DHT22;6376;48.182;-1.644;2023-01-09T13:40:25;12.40;85.00
12622;DHT22;6376;48.182;-1.644;2023-01-09T13:43:06;12.40;85.00
12622;DHT22;6376;48.182;-1.644;2023-01-09T13:45:36;12.40;85.00
12622;DHT22;6376;48.182;-1.644;2023-01-09T13:50:36;12.40;84.90
12622;DHT22;6376;48.182;-1.644;2023-01-09T14:01:06;12.40;85.10
12622;DHT22;6376;48.182;-1.644;2023-01-09T14:06:38;12.40;85.10
12622;DHT22;6376;48.182;-1.644;2023-01-09T14:09:11;12.40;85.00
12622;DHT22;6376;48.182;-1.644;2023-01-09T14:11:42;12.40;85.00
12622;DHT22;6376;48.182;-1.644;2023-01-09T14:14:26;12.40;85.00
12622;DHT22;6376;48.182;-1.644;2023-01-09T14:16:53;12.40;85.10
12622;DHT22;6376;48.182;-1.644;2023-01-09T14:19:31;12.40;85.10
12622;DHT22;6376;48.182;-1.644;2023-01-09T14:21:58;12.40;85.10
12622;DHT22;6376;48.182;-1.644;2023-01-09T14:24:41;12.40;85.00
12622;DHT22;6376;48.182;-1.644;2023-01-09T14:30:28;12.40;85.10
12622;DHT22;6376;48.182;-1.644;2023-01-09T14:33:03;12.40;85.10
12622;DHT22;6376;48.182;-1.644;2023-01-09T14:38:26;12.40;85.20
12622;DHT22;6376;48.182;-1.644;2023-01-09T14:41:02;12.30;85.30
12622;DHT22;6376;48.182;-1.644;2023-01-09T14:46:39;12.30;85.30
12622;DHT22;6376;48.182;-1.644;2023-01-09T14:49:31;12.30;85.30
12622;DHT22;6376;48.182;-1.644;2023-01-09T14:52:02;12.30;85.30
12622;DHT22;6376;48.182;-1.644;2023-01-09T14:54:33;12.30;85.50
12622;DHT22;6376;48.182;-1.644;2023-01-09T14:57:02;12.30;85.40
12622;DHT22;6376;48.182;-1.644;2023-01-09T14:59:28;12.30;85.50
12622;DHT22;6376;48.182;-1.644;2023-01-09T15:01:54;12.30;85.60
12622;DHT22;6376;48.182;-1.644;2023-01-09T15:04:32;12.30;85.50
12622;DHT22;6376;48.182;-1.644;2023-01-09T15:07:00;12.30;85.50
12622;DHT22;6376;48.182;-1.644;2023-01-09T15:12:06;12.30;85.60
12622;DHT22;6376;48.182;-1.644;2023-01-09T15:14:40;12.30;85.60
12622;DHT22;6376;48.182;-1.644;2023-01-09T15:17:23;12.30;85.60
12622;DHT22;6376;48.182;-1.644;2023-01-09T15:19:51;12.30;85.60
12622;DHT22;6376;48.182;-1.644;2023-01-09T15:22:31;12.30;85.50
12622;DHT22;6376;48.182;-1.644;2023-01-09T15:24:57;12.30;85.60
12622;DHT22;6376;48.182;-1.644;2023-01-09T15:27:24;12.30;85.60
12622;DHT22;6376;48.182;-1.644;2023-01-09T15:29:51;12.30;85.60
12622;DHT22;6376;48.182;-1.644;2023-01-09T15:32:24;12.30;85.60
12622;DHT22;6376;48.182;-1.644;2023-01-09T15:34:51;12.30;85.50
12622;DHT22;6376;48.182;-1.644;2023-01-09T15:37:27;12.30;85.50
12622;DHT22;6376;48.182;-1.644;2023-01-09T15:39:54;12.30;85.50
12622;DHT22;6376;48.182;-1.644;2023-01-09T15:42:24;12.30;85.40
12622;DHT22;6376;48.182;-1.644;2023-01-09T15:45:28;12.30;85.40
12622;DHT22;6376;48.182;-1.644;2023-01-09T15:50:46;12.20;85.30
12622;DHT22;6376;48.182;-1.644;2023-01-09T15:53:20;12.20;85.20
12622;DHT22;6376;48.182;-1.644;2023-01-09T15:58:41;12.30;85.20
12622;DHT22;6376;48.182;-1.644;2023-01-09T16:01:37;12.30;85.20
12622;DHT22;6376;48.182;-1.644;2023-01-09T16:04:15;12.20;85.00
12622;DHT22;6376;48.182;-1.644;2023-01-09T16:06:46;12.20;85.10
12622;DHT22;6376;48.182;-1.644;2023-01-09T16:12:33;12.20;85.20
12622;DHT22;6376;48.182;-1.644;2023-01-09T16:14:40;12.20;85.20
12622;DHT22;6376;48.182;-1.644;2023-01-09T16:17:16;12.20;85.20
12622;DHT22;6376;48.182;-1.644;2023-01-09T16:22:29;12.20;85.20
12622;DHT22;6376;48.182;-1.644;2023-01-09T16:25:00;12.20;85.20
12622;DHT22;6376;48.182;-1.644;2023-01-09T16:27:32;12.20;85.30
12622;DHT22;6376;48.182;-1.644;2023-01-09T16:29:59;12.20;85.30
12622;DHT22;6376;48.182;-1.644;2023-01-09T16:35:05;12.20;85.30
12622;DHT22;6376;48.182;-1.644;2023-01-09T16:37:32;12.20;85.30
12622;DHT22;6376;48.182;-1.644;2023-01-09T16:40:13;12.20;85.30
12622;DHT22;6376;48.182;-1.644;2023-01-09T16:42:39;12.20;85.50
12622;DHT22;6376;48.182;-1.644;2023-01-09T16:45:40;12.10;85.50
12622;DHT22;6376;48.182;-1.644;2023-01-09T16:48:12;12.10;85.60
12622;DHT22;6376;48.182;-1.644;2023-01-09T16:50:38;12.10;85.60
12622;DHT22;6376;48.182;-1.644;2023-01-09T16:53:19;12.10;85.50
12622;DHT22;6376;48.182;-1.644;2023-01-09T16:55:47;12.10;85.60
12622;DHT22;6376;48.182;-1.644;2023-01-09T16:58:16;12.10;85.70
12622;DHT22;6376;48.182;-1.644;2023-01-09T17:00:43;12.10;85.70
12622;DHT22;6376;48.182;-1.644;2023-01-09T17:03:12;12.10;85.70
12622;DHT22;6376;48.182;-1.644;2023-01-09T17:05:38;12.10;85.80
12622;DHT22;6376;48.182;-1.644;2023-01-09T17:08:30;12.10;85.90
12622;DHT22;6376;48.182;-1.644;2023-01-09T17:10:57;12.10;85.90
12622;DHT22;6376;48.182;-1.644;2023-01-09T17:13:23;12.10;86.00
12622;DHT22;6376;48.182;-1.644;2023-01-09T17:15:51;12.10;85.90
12622;DHT22;6376;48.182;-1.644;2023-01-09T17:18:19;12.10;86.10
12622;DHT22;6376;48.182;-1.644;2023-01-09T17:20:47;12.10;85.90
12622;DHT22;6376;48.182;-1.644;2023-01-09T17:23:13;12.10;86.10
12622;DHT22;6376;48.182;-1.644;2023-01-09T17:25:39;12.10;86.10
12622;DHT22;6376;48.182;-1.644;2023-01-09T17:28:23;12.10;86.10
12622;DHT22;6376;48.182;-1.644;2023-01-09T17:31:00;12.10;86.20
12622;DHT22;6376;48.182;-1.644;2023-01-09T17:33:26;12.00;86.20
12622;DHT22;6376;48.182;-1.644;2023-01-09T17:35:52;12.00;86.20
12622;DHT22;6376;48.182;-1.644;2023-01-09T17:38:18;12.00;86.30
12622;DHT22;6376;48.182;-1.644;2023-01-09T17:40:44;12.00;86.20
12622;DHT22;6376;48.182;-1.644;2023-01-09T17:43:10;12.00;86.30
12622;DHT22;6376;48.182;-1.644;2023-01-09T17:45:37;12.00;86.30
12622;DHT22;6376;48.182;-1.644;2023-01-09T17:48:06;12.00;86.30
12622;DHT22;6376;48.182;-1.644;2023-01-09T17:50:32;12.00;86.30
12622;DHT22;6376;48.182;-1.644;2023-01-09T17:52:59;12.00;86.30
12622;DHT22;6376;48.182;-1.644;2023-01-09T17:55:25;12.00;86.40
12622;DHT22;6376;48.182;-1.644;2023-01-09T17:57:50;12.00;86.50
12622;DHT22;6376;48.182;-1.644;2023-01-09T18:00:26;12.00;86.60
12622;DHT22;6376;48.182;-1.644;2023-01-09T18:02:52;12.00;86.60
12622;DHT22;6376;48.182;-1.644;2023-01-09T18:05:20;12.00;86.60
12622;DHT22;6376;48.182;-1.644;2023-01-09T18:07:46;12.00;86.60
12622;DHT22;6376;48.182;-1.644;2023-01-09T18:10:18;12.00;86.60
12622;DHT22;6376;48.182;-1.644;2023-01-09T18:12:46;12.00;86.80